Midland, MI (48640)

1:52 PM EST on February 12, 2016 (GMT -0500)
Midland Northwest | | Change Station
CLOSE
Current Station
Personal Weather Station
Location: Midland, MI
Elevation: 636 ft
Nearby Weather Stations

Elev 636 ft 43.65 °N, 84.28 °W | Updated 1 second ago

Overcast
Overcast
21.7 °F
Feels Like 22 °F
N
2.7
Wind Variable Wind from North
Gusts 4.9 mph

Today
High -- | Low -- °F
--% Chance of Precip.
Yesterday
High -- | Low -- °F
Precip. -- in
Pressure 29.94 in
Visibility 10.0 miles
Clouds Scattered Clouds 3900 ft
Scattered Clouds 4800 ft
Overcast 6000 ft
Windchill 22 °F
Dew Point -3 °F
Humidity 33%
Rainfall 0.00 in
Snow Depth Not available.
7:40 AM 6:02 PM
Waxing Crescent, 22% visible
METAR KIKW 121834Z AUTO 28010G17KT 10SM SCT039 SCT048 OVC060 M06/M16 A2994 RMK AO2 T10601161
Pressure 29.94 in
Visibility 10.0 miles
Clouds Scattered Clouds 3900 ft
Scattered Clouds 4800 ft
Overcast 6000 ft
Windchill 22 °F
Dew Point -3 °F
Humidity 33%
Rainfall 0.00 in
Snow Depth Not available.
7:40 AM 6:02 PM
Waxing Crescent, 22% visible
METAR KIKW 121834Z AUTO 28010G17KT 10SM SCT039 SCT048 OVC060 M06/M16 A2994 RMK AO2 T10601161

10-Day Weather Forecast

Almanac

Astronomy

Feb. 12, 2016 Rise Set
Actual Time
Civil Twilight
Nautical Twilight
Astronomical Twilight
Moon
Length of Visible Light
Length of Day
Tomorrow will be .
, % of the Moon is Illuminated

Today's Extremes

State Highs State Lows

Community

WunderPhotos

Upload Photos

1,892,369 photos uploaded!

WunderBlog® & News

Nearby

Air Quality

  Air Quality AQ Index Pollutant
Not available.

Snow Depth

Station Depth Elevation

Earthquake Activity

City Distance Mag. Time & Date
Minimum magnitude displayed is 2.5.

Coastal Water Temperatures

Place Temperature

Stations

Nearby Weather Stations

Station Location Temp. Windchill Dew Point Humidity Wind Precip. Elev Updated Type
                   

Watches & Warnings

There are currently no watches in effect.